createdAt,value
2022-07-29T00:00:49.496Z,3.43
2022-07-29T00:03:36.618Z,3.70
2022-07-29T00:06:27.636Z,3.20
2022-07-29T00:09:16.112Z,3.30
2022-07-29T00:12:03.456Z,3.23
2022-07-29T00:14:50.646Z,3.60
2022-07-29T00:17:37.823Z,4.00
2022-07-29T00:20:25.034Z,4.33
2022-07-29T00:23:13.645Z,3.67
2022-07-29T00:26:01.874Z,3.90
2022-07-29T00:28:49.185Z,4.37
2022-07-29T00:31:36.393Z,4.00
2022-07-29T00:34:39.969Z,3.80
2022-07-29T00:37:27.130Z,3.90
2022-07-29T00:40:14.541Z,4.27
2022-07-29T00:43:02.908Z,5.13
2022-07-29T00:45:50.338Z,4.33
2022-07-29T00:48:37.606Z,3.90
2022-07-29T00:51:24.749Z,4.40
2022-07-29T00:54:11.733Z,4.53
2022-07-29T00:57:00.588Z,3.83
2022-07-29T00:59:48.755Z,4.10
2022-07-29T01:02:36.289Z,4.20
2022-07-29T01:05:48.024Z,3.87
2022-07-29T01:08:34.044Z,3.70
2022-07-29T01:11:21.074Z,3.40
2022-07-29T01:14:10.479Z,3.67
2022-07-29T01:17:04.176Z,3.03
2022-07-29T01:19:56.524Z,3.13
2022-07-29T01:23:23.111Z,3.50
2022-07-29T01:26:29.817Z,3.33
2022-07-29T01:29:29.784Z,3.10
2022-07-29T01:32:29.498Z,2.90
2022-07-29T01:35:19.752Z,3.37
2022-07-29T01:38:10.415Z,3.10
2022-07-29T01:41:04.654Z,3.47
2022-07-29T01:43:55.651Z,3.30
2022-07-29T01:46:46.922Z,3.27
2022-07-29T01:49:37.300Z,3.97
2022-07-29T01:52:29.761Z,3.40
2022-07-29T01:55:18.385Z,3.83
2022-07-29T01:58:07.311Z,3.33
2022-07-29T02:00:55.678Z,3.10
2022-07-29T02:03:45.609Z,2.70
2022-07-29T02:06:34.109Z,3.83
2022-07-29T02:09:23.045Z,3.20
2022-07-29T02:12:10.073Z,3.27
2022-07-29T02:14:57.725Z,3.23
2022-07-29T02:17:46.523Z,3.50
2022-07-29T02:20:35.372Z,2.77
2022-07-29T02:23:24.588Z,3.17
2022-07-29T02:26:11.913Z,3.70
2022-07-29T02:29:02.112Z,3.20
2022-07-29T02:31:50.832Z,2.90
2022-07-29T02:34:38.584Z,3.17
2022-07-29T02:37:28.148Z,2.90
2022-07-29T02:40:17.228Z,3.43
2022-07-29T02:43:05.556Z,3.17
2022-07-29T02:45:55.173Z,3.60
2022-07-29T02:48:50.337Z,4.20
2022-07-29T02:51:45.195Z,3.80
2022-07-29T02:54:41.175Z,3.80
2022-07-29T02:57:35.997Z,4.47
2022-07-29T03:00:43.367Z,3.83
2022-07-29T03:03:32.902Z,4.60
2022-07-29T03:06:28.823Z,4.17
2022-07-29T03:09:26.324Z,4.63
2022-07-29T03:12:15.758Z,3.83
2022-07-29T03:15:03.687Z,4.53
2022-07-29T03:17:50.655Z,4.53
2022-07-29T03:20:37.494Z,4.03
2022-07-29T03:23:25.035Z,3.97
2022-07-29T03:26:12.445Z,3.90
2022-07-29T03:29:00.789Z,3.83
2022-07-29T03:31:47.934Z,4.37
2022-07-29T03:34:35.588Z,3.87
2022-07-29T03:37:22.742Z,3.83
2022-07-29T03:40:12.096Z,3.80
2022-07-29T03:42:59.356Z,4.47
2022-07-29T03:45:51.016Z,4.10
2022-07-29T03:48:40.803Z,4.37
2022-07-29T03:51:33.793Z,4.10
2022-07-29T03:54:21.551Z,3.90
2022-07-29T03:57:09.644Z,4.27
2022-07-29T03:59:57.077Z,4.30
2022-07-29T04:02:49.143Z,4.40
2022-07-29T04:05:36.215Z,4.87
2022-07-29T04:08:23.647Z,5.03
2022-07-29T04:11:10.764Z,3.60
2022-07-29T04:13:57.754Z,4.03
2022-07-29T04:16:44.824Z,4.20
2022-07-29T04:19:33.626Z,3.63
2022-07-29T04:22:21.078Z,2.90
2022-07-29T04:25:10.731Z,2.70
2022-07-29T04:28:03.990Z,2.67
2022-07-29T04:30:50.953Z,2.80
2022-07-29T04:33:37.953Z,3.23
2022-07-29T04:36:29.578Z,2.50
2022-07-29T04:39:23.429Z,2.60
2022-07-29T04:42:10.560Z,2.40
2022-07-29T04:44:57.645Z,2.40
2022-07-29T04:47:48.701Z,2.40
2022-07-29T04:50:35.705Z,2.70
2022-07-29T04:53:24.629Z,2.80
2022-07-29T04:56:11.788Z,3.03
2022-07-29T04:58:59.009Z,2.70
2022-07-29T05:01:45.876Z,3.37
2022-07-29T05:04:33.273Z,3.30
2022-07-29T05:07:26.872Z,3.77
2022-07-29T05:10:15.510Z,3.70
2022-07-29T05:13:02.764Z,3.47
2022-07-29T05:15:50.200Z,3.20
2022-07-29T05:18:37.803Z,2.80
2022-07-29T05:21:24.881Z,3.53
2022-07-29T05:24:12.528Z,3.70
2022-07-29T05:27:00.930Z,3.23
2022-07-29T05:29:47.903Z,3.67
2022-07-29T05:32:34.884Z,3.23
2022-07-29T05:35:21.920Z,3.40
2022-07-29T05:38:09.264Z,3.40
2022-07-29T05:40:58.947Z,3.63
2022-07-29T05:43:47.089Z,3.30
2022-07-29T05:46:34.217Z,3.00
2022-07-29T05:49:27.318Z,3.53
2022-07-29T05:52:15.121Z,4.33
2022-07-29T05:55:05.146Z,3.40
2022-07-29T05:57:51.827Z,3.47
2022-07-29T06:00:39.829Z,3.00
2022-07-29T06:03:26.725Z,3.00
2022-07-29T06:06:14.005Z,2.60
2022-07-29T06:09:01.227Z,2.33
2022-07-29T06:11:59.739Z,2.00
2022-07-29T06:14:49.851Z,2.33
2022-07-29T06:17:40.323Z,2.47
2022-07-29T06:20:47.352Z,3.63
2022-07-29T06:23:34.304Z,4.87
2022-07-29T06:26:30.253Z,2.13
2022-07-29T06:29:18.596Z,2.10
2022-07-29T06:32:05.846Z,2.40
2022-07-29T06:35:02.729Z,2.60
2022-07-29T06:38:00.415Z,2.67
2022-07-29T06:41:08.558Z,2.53
2022-07-29T06:43:56.750Z,2.27
2022-07-29T06:46:44.524Z,2.80
2022-07-29T06:49:31.539Z,2.63
2022-07-29T06:52:19.574Z,2.27
2022-07-29T06:55:07.157Z,2.60
2022-07-29T06:57:54.495Z,2.13
2022-07-29T07:00:41.489Z,2.53
2022-07-29T07:03:28.601Z,2.90
2022-07-29T07:06:15.698Z,2.80
2022-07-29T07:09:04.487Z,2.47
2022-07-29T07:11:51.776Z,8.53
2022-07-29T07:14:38.750Z,4.47
2022-07-29T07:17:25.497Z,3.50
2022-07-29T07:20:13.319Z,2.43
2022-07-29T07:23:00.423Z,2.47
2022-07-29T07:25:48.433Z,2.67
2022-07-29T07:28:35.507Z,3.23
2022-07-29T07:31:22.755Z,3.20
2022-07-29T07:34:10.225Z,3.97
2022-07-29T07:36:57.335Z,2.87
2022-07-29T07:39:44.203Z,3.10
2022-07-29T07:42:32.610Z,3.10
2022-07-29T07:45:19.682Z,2.53
2022-07-29T07:48:07.082Z,2.70
2022-07-29T07:50:53.980Z,2.83
2022-07-29T07:53:41.691Z,2.87
2022-07-29T07:56:33.318Z,2.43
2022-07-29T07:59:23.606Z,2.70
2022-07-29T08:02:11.445Z,2.67
2022-07-29T08:04:58.864Z,2.70
2022-07-29T08:07:46.792Z,2.90
2022-07-29T08:10:52.250Z,2.63
2022-07-29T08:14:03.996Z,2.90
2022-07-29T08:16:52.472Z,2.73
2022-07-29T08:19:39.541Z,2.23
2022-07-29T08:22:26.551Z,3.23
2022-07-29T08:25:13.560Z,2.60
2022-07-29T08:28:03.797Z,2.60
2022-07-29T08:31:16.168Z,3.00
2022-07-29T08:34:04.846Z,2.30
2022-07-29T08:36:52.652Z,2.97
2022-07-29T08:39:39.584Z,2.80
2022-07-29T08:42:27.115Z,3.00
2022-07-29T08:45:14.296Z,2.63
2022-07-29T08:48:01.445Z,2.93
2022-07-29T08:50:53.003Z,2.50
2022-07-29T08:53:44.071Z,2.88
2022-07-29T08:56:31.945Z,3.00
2022-07-29T08:59:21.229Z,2.80
2022-07-29T09:02:14.489Z,2.65
2022-07-29T09:05:03.653Z,2.55
2022-07-29T09:07:52.557Z,2.70
2022-07-29T09:10:39.991Z,2.75
2022-07-29T09:13:27.148Z,2.53
2022-07-29T09:16:22.481Z,2.40
2022-07-29T09:19:30.096Z,2.50
2022-07-29T09:22:32.718Z,2.75
2022-07-29T09:25:36.848Z,2.42
2022-07-29T09:28:25.158Z,2.63
2022-07-29T09:31:12.624Z,2.20
2022-07-29T09:34:01.179Z,2.67
2022-07-29T09:36:50.451Z,2.53
2022-07-29T09:39:41.057Z,2.42
2022-07-29T09:42:34.726Z,2.70
2022-07-29T09:45:32.770Z,2.03
2022-07-29T09:48:20.836Z,2.45
2022-07-29T09:51:07.885Z,2.75
2022-07-29T09:53:55.273Z,2.85
2022-07-29T09:56:43.408Z,2.67
2022-07-29T09:59:31.696Z,2.90
2022-07-29T10:02:23.564Z,2.33
2022-07-29T10:05:20.253Z,3.10
2022-07-29T10:08:08.529Z,2.50
2022-07-29T10:11:12.291Z,2.25
2022-07-29T10:13:59.260Z,2.95
2022-07-29T10:16:47.650Z,2.45
2022-07-29T10:19:35.458Z,3.33
2022-07-29T10:22:51.472Z,2.90
2022-07-29T10:25:30.057Z,2.92
2022-07-29T10:28:17.046Z,2.95
2022-07-29T10:31:06.064Z,2.70
2022-07-29T10:34:06.315Z,3.20
2022-07-29T10:36:57.537Z,3.93
2022-07-29T10:39:50.669Z,3.20
2022-07-29T10:42:43.227Z,3.30
2022-07-29T10:45:31.773Z,3.23
2022-07-29T10:48:20.378Z,3.33
2022-07-29T10:51:12.638Z,3.27
2022-07-29T10:54:00.696Z,3.60
2022-07-29T10:56:48.309Z,3.93
2022-07-29T10:59:36.523Z,3.90
2022-07-29T11:02:43.848Z,4.07
2022-07-29T11:05:40.700Z,4.10
2022-07-29T11:08:31.701Z,5.57
2022-07-29T11:11:34.998Z,5.10
2022-07-29T11:14:59.980Z,6.37
2022-07-29T11:18:05.948Z,4.70
2022-07-29T11:20:54.673Z,5.53
2022-07-29T11:23:44.518Z,5.67
2022-07-29T11:26:32.993Z,5.83
2022-07-29T11:29:23.146Z,5.20
2022-07-29T11:35:37.026Z,6.00
2022-07-29T11:38:27.916Z,5.13
2022-07-29T11:41:27.249Z,5.73
2022-07-29T11:44:18.027Z,6.77
2022-07-29T11:47:05.423Z,5.30
2022-07-29T11:49:54.161Z,5.20
2022-07-29T11:52:49.629Z,4.73
2022-07-29T11:55:50.888Z,4.73
2022-07-29T11:58:40.378Z,5.43
2022-07-29T12:01:28.107Z,5.67
2022-07-29T12:04:15.010Z,6.50
2022-07-29T12:07:04.751Z,6.07
2022-07-29T12:09:52.757Z,5.30
2022-07-29T12:12:44.182Z,5.30
2022-07-29T12:15:45.723Z,4.90
2022-07-29T12:18:34.323Z,5.27
2022-07-29T12:21:21.504Z,5.17
2022-07-29T12:24:12.963Z,5.73
2022-07-29T12:27:00.921Z,4.47
2022-07-29T12:29:58.337Z,8.20
2022-07-29T12:32:48.319Z,10.20
2022-07-29T12:35:35.659Z,2.97
2022-07-29T12:38:23.234Z,2.80
2022-07-29T12:41:10.637Z,2.80
2022-07-29T12:43:58.086Z,2.70
2022-07-29T12:46:47.557Z,3.00
2022-07-29T12:49:38.037Z,3.63
2022-07-29T12:52:30.360Z,3.23
2022-07-29T12:55:17.434Z,3.97
2022-07-29T12:58:04.565Z,3.67
2022-07-29T13:01:05.539Z,3.30
2022-07-29T13:04:05.303Z,3.40
2022-07-29T13:07:00.596Z,3.90
2022-07-29T13:09:48.153Z,5.83
2022-07-29T13:12:35.371Z,5.60
2022-07-29T13:15:22.641Z,4.53
2022-07-29T13:18:30.768Z,3.90
2022-07-29T13:21:18.970Z,4.03
2022-07-29T13:24:07.899Z,4.47
2022-07-29T13:26:54.955Z,4.43
2022-07-29T13:29:42.276Z,4.20
2022-07-29T13:32:31.071Z,4.00
2022-07-29T13:35:18.683Z,5.00
2022-07-29T13:38:05.586Z,4.83
2022-07-29T13:40:54.691Z,4.53
2022-07-29T13:43:41.966Z,5.00
2022-07-29T13:46:29.097Z,4.70
2022-07-29T13:49:16.146Z,4.30
2022-07-29T13:52:03.082Z,4.73
2022-07-29T13:54:50.172Z,4.53
2022-07-29T13:57:38.072Z,4.20
2022-07-29T14:00:25.591Z,4.27
2022-07-29T14:03:12.898Z,4.87
2022-07-29T14:06:00.886Z,5.27
2022-07-29T14:08:48.680Z,4.93
2022-07-29T14:11:35.774Z,4.90
2022-07-29T14:14:24.305Z,4.40
2022-07-29T14:17:11.914Z,5.27
2022-07-29T14:19:59.002Z,5.20
2022-07-29T14:22:46.009Z,4.93
2022-07-29T14:25:33.013Z,4.77
2022-07-29T14:28:20.088Z,4.90
2022-07-29T14:31:08.475Z,5.30
2022-07-29T14:33:57.851Z,4.60
2022-07-29T14:36:46.959Z,5.33
2022-07-29T14:39:36.965Z,7.50
2022-07-29T14:42:26.692Z,6.33
2022-07-29T14:45:13.843Z,5.13
2022-07-29T14:48:02.264Z,5.30
2022-07-29T14:50:49.495Z,4.53
2022-07-29T14:53:36.651Z,4.63
2022-07-29T14:56:46.611Z,4.47
2022-07-29T14:59:31.187Z,4.93
2022-07-29T15:02:18.433Z,5.77
2022-07-29T15:05:07.472Z,5.57
2022-07-29T15:07:54.629Z,4.83
2022-07-29T15:10:41.805Z,5.33
2022-07-29T15:13:28.813Z,5.43
2022-07-29T15:16:16.025Z,5.00
2022-07-29T15:19:03.106Z,14.37
2022-07-29T15:21:51.563Z,7.07
2022-07-29T15:24:38.652Z,5.37
2022-07-29T15:27:26.252Z,6.57
2022-07-29T15:30:27.919Z,5.37
2022-07-29T15:33:19.785Z,5.73
2022-07-29T15:36:06.957Z,6.00
2022-07-29T15:38:56.011Z,5.07
2022-07-29T15:41:43.156Z,5.23
2022-07-29T15:44:30.099Z,5.47
2022-07-29T15:47:17.719Z,6.00
2022-07-29T15:50:04.999Z,5.20
2022-07-29T15:52:52.348Z,5.03
2022-07-29T15:55:40.731Z,8.03
2022-07-29T15:58:31.748Z,12.63
2022-07-29T16:01:19.296Z,5.00
2022-07-29T16:04:07.020Z,4.47
2022-07-29T16:06:54.555Z,4.50
2022-07-29T16:09:41.811Z,4.53
2022-07-29T16:12:29.908Z,4.20
2022-07-29T16:15:17.419Z,4.30
2022-07-29T16:18:04.419Z,4.70
2022-07-29T16:20:51.796Z,4.43
2022-07-29T16:23:38.820Z,4.50
2022-07-29T16:26:25.826Z,4.77
2022-07-29T16:29:14.956Z,4.73
2022-07-29T16:32:02.345Z,4.87
2022-07-29T16:34:49.388Z,4.90
2022-07-29T16:37:37.189Z,4.67
2022-07-29T16:40:24.367Z,4.77
2022-07-29T16:43:11.432Z,5.13
2022-07-29T16:45:59.470Z,4.73
2022-07-29T16:48:46.404Z,4.50
2022-07-29T16:51:33.557Z,4.37
2022-07-29T16:54:20.632Z,4.70
2022-07-29T16:57:07.816Z,4.40
2022-07-29T16:59:54.787Z,4.20
2022-07-29T17:02:43.020Z,5.13
2022-07-29T17:05:30.050Z,4.43
2022-07-29T17:08:37.176Z,4.30
2022-07-29T17:11:53.270Z,4.53
2022-07-29T17:14:33.390Z,4.43
2022-07-29T17:17:20.829Z,4.27
2022-07-29T17:20:27.765Z,5.20
2022-07-29T17:23:15.027Z,4.60
2022-07-29T17:26:02.013Z,4.20
2022-07-29T17:28:49.182Z,4.50
2022-07-29T17:31:36.754Z,4.80
2022-07-29T17:34:23.979Z,4.30
2022-07-29T17:37:13.172Z,4.03
2022-07-29T17:40:00.714Z,5.00
2022-07-29T17:42:47.957Z,4.17
2022-07-29T17:45:48.891Z,4.23
2022-07-29T17:48:36.868Z,5.40
2022-07-29T17:51:24.667Z,4.87
2022-07-29T17:54:13.080Z,4.67
2022-07-29T17:57:00.670Z,5.50
2022-07-29T17:59:48.004Z,4.70
2022-07-29T18:02:37.312Z,4.20
2022-07-29T18:05:24.939Z,4.40
2022-07-29T18:08:12.193Z,4.53
2022-07-29T18:11:00.704Z,4.30
2022-07-29T18:13:47.790Z,4.23
2022-07-29T18:16:34.634Z,4.47
2022-07-29T18:19:21.920Z,4.60
2022-07-29T18:22:11.343Z,4.90
2022-07-29T18:24:58.423Z,4.63
2022-07-29T18:27:46.842Z,4.60
2022-07-29T18:30:36.713Z,4.40
2022-07-29T18:33:23.495Z,4.60
2022-07-29T18:36:11.894Z,4.60
2022-07-29T18:38:59.119Z,5.10
2022-07-29T18:41:50.350Z,4.87
2022-07-29T18:44:43.855Z,4.33
2022-07-29T18:47:36.298Z,4.50
2022-07-29T18:50:29.571Z,4.50
2022-07-29T18:53:17.256Z,5.37
2022-07-29T18:56:09.369Z,4.63
2022-07-29T18:59:00.067Z,5.27
2022-07-29T19:01:48.858Z,5.03
2022-07-29T19:04:39.094Z,4.97
2022-07-29T19:07:26.831Z,4.90
2022-07-29T19:10:13.788Z,4.33
2022-07-29T19:13:00.826Z,4.47
2022-07-29T19:15:48.115Z,4.20
2022-07-29T19:18:36.439Z,4.43
2022-07-29T19:21:24.060Z,3.97
2022-07-29T19:24:15.431Z,4.07
2022-07-29T19:27:02.930Z,4.23
2022-07-29T19:29:50.188Z,4.80
2022-07-29T19:32:37.702Z,5.10
2022-07-29T19:35:28.081Z,4.53
2022-07-29T19:38:15.524Z,4.40
2022-07-29T19:41:02.795Z,4.53
2022-07-29T19:43:52.850Z,3.87
2022-07-29T19:46:40.555Z,4.30
2022-07-29T19:49:27.883Z,4.47
2022-07-29T19:52:16.111Z,3.90
2022-07-29T19:55:07.629Z,4.07
2022-07-29T19:57:55.260Z,3.93
2022-07-29T20:00:43.602Z,4.27
2022-07-29T20:03:30.898Z,4.03
2022-07-29T20:06:18.376Z,3.43
2022-07-29T20:09:06.948Z,3.97
2022-07-29T20:11:53.929Z,3.83
2022-07-29T20:14:41.059Z,4.20
2022-07-29T20:17:28.894Z,4.07
2022-07-29T20:20:15.892Z,5.30
2022-07-29T20:23:03.682Z,6.13
2022-07-29T20:25:54.142Z,6.43
2022-07-29T20:28:45.295Z,6.50
2022-07-29T20:31:36.369Z,6.77
2022-07-29T20:34:23.806Z,5.50
2022-07-29T20:37:11.323Z,5.63
2022-07-29T20:39:58.414Z,5.80
2022-07-29T20:42:46.611Z,6.07
2022-07-29T20:45:34.556Z,5.63
2022-07-29T20:48:21.930Z,6.50
2022-07-29T20:51:09.423Z,6.23
2022-07-29T20:53:56.662Z,6.03
2022-07-29T20:56:43.771Z,6.00
2022-07-29T20:59:32.658Z,7.00
2022-07-29T21:02:20.132Z,6.67
2022-07-29T21:05:07.619Z,6.50
2022-07-29T21:07:58.112Z,6.60
2022-07-29T21:10:46.518Z,6.90
2022-07-29T21:13:38.261Z,7.97
2022-07-29T21:16:28.562Z,7.60
2022-07-29T21:19:15.588Z,6.30
2022-07-29T21:22:02.477Z,6.17
2022-07-29T21:24:49.999Z,6.90
2022-07-29T21:27:55.475Z,7.53
2022-07-29T21:30:42.605Z,7.00
2022-07-29T21:33:33.167Z,6.70
2022-07-29T21:39:27.892Z,6.73
2022-07-29T21:42:15.009Z,6.60
2022-07-29T21:45:02.154Z,7.33
2022-07-29T21:47:48.817Z,6.70
2022-07-29T21:50:37.126Z,6.50
2022-07-29T21:53:26.711Z,6.80
2022-07-29T21:56:14.961Z,6.73
2022-07-29T21:59:02.456Z,7.03
2022-07-29T22:01:49.801Z,7.07
2022-07-29T22:04:36.964Z,6.67
2022-07-29T22:07:25.152Z,6.90
2022-07-29T22:10:33.405Z,6.60
2022-07-29T22:13:20.697Z,7.27
2022-07-29T22:16:09.452Z,6.87
2022-07-29T22:18:56.892Z,7.10
2022-07-29T22:21:44.255Z,7.23
2022-07-29T22:24:32.051Z,6.53
2022-07-29T22:27:19.623Z,5.93
2022-07-29T22:30:08.204Z,6.23
2022-07-29T22:32:55.435Z,5.53
2022-07-29T22:35:41.994Z,6.50
2022-07-29T22:38:29.295Z,6.07
2022-07-29T22:41:17.436Z,6.17
2022-07-29T22:44:04.611Z,5.77
2022-07-29T22:46:51.691Z,5.70
2022-07-29T22:49:38.440Z,5.00
2022-07-29T22:52:26.104Z,5.00
2022-07-29T22:55:13.163Z,4.60
2022-07-29T22:58:01.570Z,4.43
2022-07-29T23:00:48.424Z,3.77
2022-07-29T23:03:35.338Z,3.53
2022-07-29T23:06:22.180Z,2.97
2022-07-29T23:09:09.285Z,3.20
2022-07-29T23:12:21.589Z,3.47
2022-07-29T23:15:10.212Z,3.20
2022-07-29T23:17:57.579Z,3.20
2022-07-29T23:20:44.995Z,3.07
2022-07-29T23:23:32.541Z,3.13
2022-07-29T23:26:19.620Z,3.07
2022-07-29T23:29:06.781Z,3.80
2022-07-29T23:31:54.917Z,6.43
2022-07-29T23:34:41.992Z,4.10
2022-07-29T23:37:29.285Z,3.60
2022-07-29T23:40:16.726Z,4.07
2022-07-29T23:43:08.665Z,3.53
2022-07-29T23:45:55.981Z,4.17
2022-07-29T23:48:46.682Z,4.20
2022-07-29T23:51:33.781Z,4.00
2022-07-29T23:54:20.796Z,3.73
2022-07-29T23:57:08.108Z,4.07
2022-07-29T23:59:56.141Z,3.90
